STS Fryderyk Chopin — SPS2298 — position and weather

sailwx.info

Track history (hours):
 
Tides and Currents Weather Stations Pressure Air Temp Water Temp Dewpoint Dewpoint Depression Visibility Wind Speed Wind Dir Waves Ship Positions

STS Fryderyk Chopin (Poland)

Ship's website: http://www.fryderykchopin.pl/

Last reported at 2017-Jan-12 10:32 UTC. Time now 2017-Jan-24 19:21 UTC.
Position N 15°40' W 061°33'.
Warning: this ship's position is 12 days out of date.

Length 44 m; draft 3.9 m.

Type: Sailing vessel. MMSI: 261000290.

Date/timePositionNaut miles runAvg speedWind from/ knotsBaromVisibWave heightAir tempDewpointWater temp
2017-Jan-12 10:32N 15°40' W 061°33'20 6.5
2017-Jan-12 07:30N 15°55' W 061°46'2 2.1
2017-Jan-12 06:33N 15°57' W 061°47'7 5.2
2017-Jan-12 05:08N 16°03' W 061°51'3 5.1
2017-Jan-12 04:28N 16°06' W 061°52'6 6.4
2017-Jan-12 03:33N 16°12' W 061°55'9 8.5
2017-Jan-12 02:33N 16°19' W 061°59'7 7.5
2017-Jan-12 01:33N 16°25' W 062°04'6 6.2
2017-Jan-12 00:33N 16°31' W 062°07'6 6.1
2017-Jan-11 23:33N 16°36' W 062°10'4 3.7
2017-Jan-11 22:33N 16°39' W 062°13'4 4.0
2017-Jan-11 21:33N 16°42' W 062°15'4 4.5
2017-Jan-11 20:33N 16°46' W 062°14'2 1.9
2017-Jan-11 19:33N 16°48' W 062°13'0 0.1
2017-Jan-11 18:32N 16°48' W 062°13'0 0.0
2017-Jan-11 17:33N 16°48' W 062°13'0 0.0
2017-Jan-11 16:33N 16°48' W 062°13'0 0.0
2017-Jan-11 15:31N 16°48' W 062°13'0 0.0
2017-Jan-11 14:33N 16°48' W 062°13'0 0.0
2017-Jan-11 13:33N 16°48' W 062°13'0 0.0
2017-Jan-11 12:33N 16°48' W 062°13'0 0.0
2017-Jan-11 11:33N 16°48' W 062°13'0 0.0
2017-Jan-11 10:33N 16°48' W 062°13'0 0.0
2017-Jan-11 09:32N 16°48' W 062°13'0 0.0
2017-Jan-11 08:32N 16°48' W 062°13'0 0.0
2017-Jan-11 07:32N 16°48' W 062°13'0 0.0
2017-Jan-11 06:33N 16°48' W 062°13'0 0.0
2017-Jan-11 05:33N 16°48' W 062°13'0 0.0
2017-Jan-11 04:32N 16°48' W 062°13'0 0.0
2017-Jan-11 03:33N 16°48' W 062°13'0 0.0
2017-Jan-11 02:33N 16°48' W 062°13'0 0.0
2017-Jan-11 01:33N 16°48' W 062°13'0 0.0
2017-Jan-11 00:33N 16°48' W 062°13'0 0.0
2017-Jan-10 23:33N 16°48' W 062°13'0 0.0
2017-Jan-10 22:19N 16°48' W 062°13'0 0.0
2017-Jan-10 21:33N 16°48' W 062°13'0 0.1
2017-Jan-10 20:33N 16°48' W 062°13'3 2.8
2017-Jan-10 19:33N 16°50' W 062°11'4 4.3
2017-Jan-10 18:33N 16°49' W 062°07'5 5.5
2017-Jan-10 17:33N 16°45' W 062°03'5 4.8
2017-Jan-10 16:33N 16°41' W 062°01'5 4.9
2017-Jan-10 15:33N 16°36' W 062°00'5 5.3
2017-Jan-10 14:33N 16°31' W 061°59'6 5.6
2017-Jan-10 13:33N 16°25' W 061°57'6 6.3
2017-Jan-10 12:33N 16°19' W 061°55'7 6.9
2017-Jan-10 11:33N 16°13' W 061°53'12 6.2
2017-Jan-10 09:33N 16°02' W 061°47'13 3.0
2017-Jan-10 05:16N 15°56' W 061°36'9 5.1
2017-Jan-10 03:24N 15°56' W 061°26'6 0.2
2017-Jan-09 00:21N 15°57' W 061°20'0 0.0
2017-Jan-08 16:24N 15°57' W 061°20'3 3.1
2017-Jan-08 15:33N 15°57' W 061°22'6 5.8
2017-Jan-08 14:32N 15°56' W 061°28'6 5.5
2017-Jan-08 13:31N 15°54' W 061°34'2 0.2
2017-Jan-08 00:32N 15°52' W 061°35'0 0.0
2017-Jan-07 23:29N 15°52' W 061°35'0 0.0
2017-Jan-07 21:32N 15°52' W 061°35'0 0.0
2017-Jan-07 20:32N 15°52' W 061°35'0 0.0
2017-Jan-07 19:32N 15°52' W 061°35'0 0.0
2017-Jan-07 13:32N 15°52' W 061°35'0 0.0
2017-Jan-07 12:14N 15°52' W 061°35'0 0.0
2017-Jan-06 20:14N 15°52' W 061°35'0 0.0
2017-Jan-06 19:14N 15°52' W 061°35'0 0.0
2017-Jan-06 18:23N 15°52' W 061°35'0 0.0
2017-Jan-06 17:11N 15°52' W 061°35'0 0.0
2017-Jan-05 22:14N 15°52' W 061°35'  
Track history (hours):
 
Tides and Currents Weather Stations Pressure Air Temp Water Temp Dewpoint Dewpoint Depression Visibility Wind Speed Wind Dir Waves Ship Positions

STS Fryderyk Chopin (Poland)

Ship's website: http://www.fryderykchopin.pl/

Last reported at 2017-Jan-12 10:32 UTC. Time now 2017-Jan-24 19:21 UTC.
Position N 15°40' W 061°33'.
Warning: this ship's position is 12 days out of date.

Length 44 m; draft 3.9 m.

Type: Sailing vessel. MMSI: 261000290.

Date/timePositionNaut miles runAvg speedWind from/ knotsBaromVisibWave heightAir tempDewpointWater temp
2017-Jan-12 10:32N 15°40' W 061°33'20 6.5
2017-Jan-12 07:30N 15°55' W 061°46'2 2.1
2017-Jan-12 06:33N 15°57' W 061°47'7 5.2
2017-Jan-12 05:08N 16°03' W 061°51'3 5.1
2017-Jan-12 04:28N 16°06' W 061°52'6 6.4
2017-Jan-12 03:33N 16°12' W 061°55'9 8.5
2017-Jan-12 02:33N 16°19' W 061°59'7 7.5
2017-Jan-12 01:33N 16°25' W 062°04'6 6.2
2017-Jan-12 00:33N 16°31' W 062°07'6 6.1
2017-Jan-11 23:33N 16°36' W 062°10'4 3.7
2017-Jan-11 22:33N 16°39' W 062°13'4 4.0
2017-Jan-11 21:33N 16°42' W 062°15'4 4.5
2017-Jan-11 20:33N 16°46' W 062°14'2 1.9
2017-Jan-11 19:33N 16°48' W 062°13'0 0.1
2017-Jan-11 18:32N 16°48' W 062°13'0 0.0
2017-Jan-11 17:33N 16°48' W 062°13'0 0.0
2017-Jan-11 16:33N 16°48' W 062°13'0 0.0
2017-Jan-11 15:31N 16°48' W 062°13'0 0.0
2017-Jan-11 14:33N 16°48' W 062°13'0 0.0
2017-Jan-11 13:33N 16°48' W 062°13'0 0.0
2017-Jan-11 12:33N 16°48' W 062°13'0 0.0
2017-Jan-11 11:33N 16°48' W 062°13'0 0.0
2017-Jan-11 10:33N 16°48' W 062°13'0 0.0
2017-Jan-11 09:32N 16°48' W 062°13'0 0.0
2017-Jan-11 08:32N 16°48' W 062°13'0 0.0
2017-Jan-11 07:32N 16°48' W 062°13'0 0.0
2017-Jan-11 06:33N 16°48' W 062°13'0 0.0
2017-Jan-11 05:33N 16°48' W 062°13'0 0.0
2017-Jan-11 04:32N 16°48' W 062°13'0 0.0
2017-Jan-11 03:33N 16°48' W 062°13'0 0.0
2017-Jan-11 02:33N 16°48' W 062°13'0 0.0
2017-Jan-11 01:33N 16°48' W 062°13'0 0.0
2017-Jan-11 00:33N 16°48' W 062°13'0 0.0
2017-Jan-10 23:33N 16°48' W 062°13'0 0.0
2017-Jan-10 22:19N 16°48' W 062°13'0 0.0
2017-Jan-10 21:33N 16°48' W 062°13'0 0.1
2017-Jan-10 20:33N 16°48' W 062°13'3 2.8
2017-Jan-10 19:33N 16°50' W 062°11'4 4.3
2017-Jan-10 18:33N 16°49' W 062°07'5 5.5
2017-Jan-10 17:33N 16°45' W 062°03'5 4.8
2017-Jan-10 16:33N 16°41' W 062°01'5 4.9
2017-Jan-10 15:33N 16°36' W 062°00'5 5.3
2017-Jan-10 14:33N 16°31' W 061°59'6 5.6
2017-Jan-10 13:33N 16°25' W 061°57'6 6.3
2017-Jan-10 12:33N 16°19' W 061°55'7 6.9
2017-Jan-10 11:33N 16°13' W 061°53'12 6.2
2017-Jan-10 09:33N 16°02' W 061°47'13 3.0
2017-Jan-10 05:16N 15°56' W 061°36'9 5.1
2017-Jan-10 03:24N 15°56' W 061°26'6 0.2
2017-Jan-09 00:21N 15°57' W 061°20'0 0.0
2017-Jan-08 16:24N 15°57' W 061°20'3 3.1
2017-Jan-08 15:33N 15°57' W 061°22'6 5.8
2017-Jan-08 14:32N 15°56' W 061°28'6 5.5
2017-Jan-08 13:31N 15°54' W 061°34'2 0.2
2017-Jan-08 00:32N 15°52' W 061°35'0 0.0
2017-Jan-07 23:29N 15°52' W 061°35'0 0.0
2017-Jan-07 21:32N 15°52' W 061°35'0 0.0
2017-Jan-07 20:32N 15°52' W 061°35'0 0.0
2017-Jan-07 19:32N 15°52' W 061°35'0 0.0
2017-Jan-07 13:32N 15°52' W 061°35'0 0.0
2017-Jan-07 12:14N 15°52' W 061°35'0 0.0
2017-Jan-06 20:14N 15°52' W 061°35'0 0.0
2017-Jan-06 19:14N 15°52' W 061°35'0 0.0
2017-Jan-06 18:23N 15°52' W 061°35'0 0.0
2017-Jan-06 17:11N 15°52' W 061°35'0 0.0
2017-Jan-05 22:14N 15°52' W 061°35'  

Dump ship's entire track history